sensor_id;sensor_type;location;lat;lon;timestamp;pressure;altitude;pressure_sealevel;temperature;humidity
8069;BME280;4077;43.702;24.896;2023-08-31T00:01:39;98722.88;;;20.56;100.00
8069;BME280;4077;43.702;24.896;2023-08-31T00:04:05;98719.25;;;20.59;100.00
8069;BME280;4077;43.702;24.896;2023-08-31T00:06:33;98728.66;;;20.64;100.00
8069;BME280;4077;43.702;24.896;2023-08-31T00:08:59;98728.53;;;20.67;100.00
8069;BME280;4077;43.702;24.896;2023-08-31T00:11:24;98734.63;;;20.68;100.00
8069;BME280;4077;43.702;24.896;2023-08-31T00:13:51;98736.34;;;20.69;100.00
8069;BME280;4077;43.702;24.896;2023-08-31T00:16:17;98737.03;;;20.72;100.00
8069;BME280;4077;43.702;24.896;2023-08-31T00:18:42;98739.56;;;20.75;100.00
8069;BME280;4077;43.702;24.896;2023-08-31T00:21:10;98737.72;;;20.77;100.00
8069;BME280;4077;43.702;24.896;2023-08-31T00:23:36;98729.84;;;20.77;100.00
8069;BME280;4077;43.702;24.896;2023-08-31T00:26:02;98725.00;;;20.68;100.00
8069;BME280;4077;43.702;24.896;2023-08-31T00:28:28;98726.84;;;20.66;100.00
8069;BME280;4077;43.702;24.896;2023-08-31T00:30:54;98731.34;;;20.63;100.00
8069;BME280;4077;43.702;24.896;2023-08-31T00:33:19;98724.81;;;20.51;100.00
8069;BME280;4077;43.702;24.896;2023-08-31T00:35:44;98738.44;;;20.61;100.00
8069;BME280;4077;43.702;24.896;2023-08-31T00:38:13;98734.28;;;20.55;100.00
8069;BME280;4077;43.702;24.896;2023-08-31T00:40:42;98738.63;;;20.56;100.00
8069;BME280;4077;43.702;24.896;2023-08-31T00:43:10;98752.09;;;20.47;100.00
8069;BME280;4077;43.702;24.896;2023-08-31T00:45:41;98745.38;;;20.40;100.00
8069;BME280;4077;43.702;24.896;2023-08-31T00:48:07;98750.84;;;20.34;100.00
8069;BME280;4077;43.702;24.896;2023-08-31T00:50:33;98752.63;;;20.33;100.00
8069;BME280;4077;43.702;24.896;2023-08-31T00:52:59;98757.94;;;20.32;100.00
8069;BME280;4077;43.702;24.896;2023-08-31T00:55:24;98750.13;;;20.30;100.00
8069;BME280;4077;43.702;24.896;2023-08-31T00:57:50;98756.59;;;20.21;100.00
8069;BME280;4077;43.702;24.896;2023-08-31T01:00:16;98756.44;;;20.03;100.00
8069;BME280;4077;43.702;24.896;2023-08-31T01:03:16;98757.44;;;20.00;100.00
8069;BME280;4077;43.702;24.896;2023-08-31T01:06:07;98767.22;;;19.95;100.00
8069;BME280;4077;43.702;24.896;2023-08-31T01:13:41;98765.34;;;19.75;100.00
8069;BME280;4077;43.702;24.896;2023-08-31T01:16:10;98768.94;;;19.73;100.00
8069;BME280;4077;43.702;24.896;2023-08-31T01:18:39;98771.63;;;19.71;100.00
8069;BME280;4077;43.702;24.896;2023-08-31T01:26:12;98770.03;;;19.67;100.00
8069;BME280;4077;43.702;24.896;2023-08-31T01:28:38;98781.47;;;19.64;100.00
8069;BME280;4077;43.702;24.896;2023-08-31T01:31:04;98785.16;;;19.59;100.00
8069;BME280;4077;43.702;24.896;2023-08-31T01:33:31;98784.50;;;19.52;100.00
8069;BME280;4077;43.702;24.896;2023-08-31T01:35:57;98786.28;;;19.52;100.00
8069;BME280;4077;43.702;24.896;2023-08-31T01:38:28;98797.72;;;19.49;100.00
8069;BME280;4077;43.702;24.896;2023-08-31T01:41:07;98793.38;;;19.48;100.00
8069;BME280;4077;43.702;24.896;2023-08-31T01:43:36;98799.72;;;19.41;100.00
8069;BME280;4077;43.702;24.896;2023-08-31T01:46:03;98804.97;;;19.41;100.00
8069;BME280;4077;43.702;24.896;2023-08-31T01:48:29;98806.78;;;19.39;100.00
8069;BME280;4077;43.702;24.896;2023-08-31T01:50:54;98802.41;;;19.39;100.00
8069;BME280;4077;43.702;24.896;2023-08-31T01:53:20;98805.94;;;19.38;100.00
8069;BME280;4077;43.702;24.896;2023-08-31T01:55:45;98803.47;;;19.34;100.00
8069;BME280;4077;43.702;24.896;2023-08-31T01:58:13;98792.16;;;19.33;100.00
8069;BME280;4077;43.702;24.896;2023-08-31T02:00:38;98795.75;;;19.31;100.00
8069;BME280;4077;43.702;24.896;2023-08-31T02:03:09;98800.13;;;19.30;100.00
8069;BME280;4077;43.702;24.896;2023-08-31T02:05:37;98799.31;;;19.28;100.00
8069;BME280;4077;43.702;24.896;2023-08-31T02:08:03;98787.47;;;19.18;100.00
8069;BME280;4077;43.702;24.896;2023-08-31T02:10:28;98787.47;;;19.18;100.00
8069;BME280;4077;43.702;24.896;2023-08-31T02:12:55;98790.03;;;19.20;100.00
8069;BME280;4077;43.702;24.896;2023-08-31T02:15:20;98790.88;;;19.20;100.00
8069;BME280;4077;43.702;24.896;2023-08-31T02:17:45;98795.25;;;19.20;100.00
8069;BME280;4077;43.702;24.896;2023-08-31T02:20:11;98790.88;;;19.20;100.00
8069;BME280;4077;43.702;24.896;2023-08-31T02:22:36;98787.41;;;19.20;100.00
8069;BME280;4077;43.702;24.896;2023-08-31T02:25:02;98789.09;;;19.21;100.00
8069;BME280;4077;43.702;24.896;2023-08-31T02:27:28;98789.94;;;19.23;100.00
8069;BME280;4077;43.702;24.896;2023-08-31T02:29:53;98780.31;;;19.23;100.00
8069;BME280;4077;43.702;24.896;2023-08-31T02:32:21;98780.41;;;19.20;100.00
8069;BME280;4077;43.702;24.896;2023-08-31T02:34:47;98793.47;;;19.22;100.00
8069;BME280;4077;43.702;24.896;2023-08-31T02:37:15;98790.84;;;19.22;100.00
8069;BME280;4077;43.702;24.896;2023-08-31T02:39:40;98794.31;;;19.22;100.00
8069;BME280;4077;43.702;24.896;2023-08-31T02:42:05;98789.31;;;19.14;100.00
8069;BME280;4077;43.702;24.896;2023-08-31T02:44:31;98795.47;;;19.13;100.00
8069;BME280;4077;43.702;24.896;2023-08-31T02:46:57;98796.31;;;19.14;100.00
8069;BME280;4077;43.702;24.896;2023-08-31T02:49:22;98799.00;;;19.12;100.00
8069;BME280;4077;43.702;24.896;2023-08-31T02:51:48;98804.13;;;19.16;100.00
8069;BME280;4077;43.702;24.896;2023-08-31T02:54:14;98805.91;;;19.13;100.00
8069;BME280;4077;43.702;24.896;2023-08-31T02:56:40;98811.06;;;19.17;100.00
8069;BME280;4077;43.702;24.896;2023-08-31T02:59:05;98802.50;;;19.11;100.00
8069;BME280;4077;43.702;24.896;2023-08-31T03:01:30;98808.00;;;19.04;100.00
8069;BME280;4077;43.702;24.896;2023-08-31T03:03:56;98803.75;;;19.01;100.00
8069;BME280;4077;43.702;24.896;2023-08-31T03:06:24;98804.69;;;18.99;100.00
8069;BME280;4077;43.702;24.896;2023-08-31T03:08:49;98806.25;;;19.04;100.00
8069;BME280;4077;43.702;24.896;2023-08-31T03:11:14;98812.47;;;19.00;100.00
8069;BME280;4077;43.702;24.896;2023-08-31T03:13:40;98808.16;;;18.99;100.00
8069;BME280;4077;43.702;24.896;2023-08-31T03:16:09;98815.72;;;19.08;100.00
8069;BME280;4077;43.702;24.896;2023-08-31T03:18:34;98820.25;;;19.03;100.00
8069;BME280;4077;43.702;24.896;2023-08-31T03:21:00;98823.13;;;18.96;100.00
8069;BME280;4077;43.702;24.896;2023-08-31T03:23:26;98826.47;;;18.99;100.00
8069;BME280;4077;43.702;24.896;2023-08-31T03:25:51;98825.56;;;19.00;100.00
8069;BME280;4077;43.702;24.896;2023-08-31T03:28:17;98830.78;;;19.00;100.00
8069;BME280;4077;43.702;24.896;2023-08-31T03:30:44;98828.22;;;18.99;100.00
8069;BME280;4077;43.702;24.896;2023-08-31T03:33:10;98826.53;;;18.98;100.00
8069;BME280;4077;43.702;24.896;2023-08-31T03:35:36;98826.63;;;18.95;100.00
8069;BME280;4077;43.702;24.896;2023-08-31T03:38:01;98831.03;;;18.94;100.00
8069;BME280;4077;43.702;24.896;2023-08-31T03:40:27;98824.09;;;18.92;100.00
8069;BME280;4077;43.702;24.896;2023-08-31T03:42:52;98817.44;;;18.83;100.00
8069;BME280;4077;43.702;24.896;2023-08-31T03:45:19;98830.56;;;18.81;100.00
8069;BME280;4077;43.702;24.896;2023-08-31T03:47:45;98835.81;;;18.80;100.00
8069;BME280;4077;43.702;24.896;2023-08-31T03:50:10;98841.97;;;18.79;100.00
8069;BME280;4077;43.702;24.896;2023-08-31T03:52:43;98843.66;;;18.80;100.00
8069;BME280;4077;43.702;24.896;2023-08-31T03:55:09;98843.00;;;18.73;100.00
8069;BME280;4077;43.702;24.896;2023-08-31T03:57:35;98848.34;;;18.70;100.00
8069;BME280;4077;43.702;24.896;2023-08-31T04:00:00;98845.78;;;18.69;100.00
8069;BME280;4077;43.702;24.896;2023-08-31T04:02:25;98848.44;;;18.66;100.00
8069;BME280;4077;43.702;24.896;2023-08-31T04:04:51;98847.69;;;18.62;100.00
8069;BME280;4077;43.702;24.896;2023-08-31T04:07:19;98854.63;;;18.63;100.00
8069;BME280;4077;43.702;24.896;2023-08-31T04:09:44;98849.53;;;18.60;100.00
8069;BME280;4077;43.702;24.896;2023-08-31T04:12:10;98857.44;;;18.57;100.00
8069;BME280;4077;43.702;24.896;2023-08-31T04:14:35;98851.34;;;18.56;100.00
8069;BME280;4077;43.702;24.896;2023-08-31T04:17:01;98852.22;;;18.57;100.00
8069;BME280;4077;43.702;24.896;2023-08-31T04:19:35;98858.22;;;18.61;100.00
8069;BME280;4077;43.702;24.896;2023-08-31T04:22:03;98863.44;;;18.61;100.00
8069;BME280;4077;43.702;24.896;2023-08-31T04:24:29;98856.47;;;18.59;100.00
8069;BME280;4077;43.702;24.896;2023-08-31T04:26:55;98869.41;;;18.64;100.00
8069;BME280;4077;43.702;24.896;2023-08-31T04:29:21;98866.00;;;18.62;100.00
8069;BME280;4077;43.702;24.896;2023-08-31T04:31:46;98863.91;;;18.75;100.00
8069;BME280;4077;43.702;24.896;2023-08-31T04:34:11;98876.13;;;18.74;100.00
8069;BME280;4077;43.702;24.896;2023-08-31T04:36:39;98883.78;;;18.79;100.00
8069;BME280;4077;43.702;24.896;2023-08-31T04:39:07;98881.09;;;18.82;100.00
8069;BME280;4077;43.702;24.896;2023-08-31T04:41:33;98879.28;;;18.84;100.00
8069;BME280;4077;43.702;24.896;2023-08-31T04:43:58;98878.31;;;18.86;100.00
8069;BME280;4077;43.702;24.896;2023-08-31T04:46:24;98875.75;;;18.85;100.00
8069;BME280;4077;43.702;24.896;2023-08-31T04:48:49;98879.16;;;18.89;100.00
8069;BME280;4077;43.702;24.896;2023-08-31T04:53:53;98879.69;;;18.98;100.00
8069;BME280;4077;43.702;24.896;2023-08-31T04:56:18;98882.06;;;19.06;100.00
8069;BME280;4077;43.702;24.896;2023-08-31T04:58:44;98887.03;;;19.13;100.00
8069;BME280;4077;43.702;24.896;2023-08-31T05:01:09;98887.66;;;19.22;100.00
8069;BME280;4077;43.702;24.896;2023-08-31T05:03:35;98895.38;;;19.25;100.00
8069;BME280;4077;43.702;24.896;2023-08-31T05:06:00;98896.84;;;19.33;100.00
8069;BME280;4077;43.702;24.896;2023-08-31T05:08:26;98897.41;;;19.43;100.00
8069;BME280;4077;43.702;24.896;2023-08-31T05:10:51;98904.88;;;19.54;100.00
8069;BME280;4077;43.702;24.896;2023-08-31T05:13:16;98910.56;;;19.66;100.00
8069;BME280;4077;43.702;24.896;2023-08-31T05:15:42;98925.88;;;19.79;100.00
8069;BME280;4077;43.702;24.896;2023-08-31T05:18:07;98921.19;;;19.87;100.00
8069;BME280;4077;43.702;24.896;2023-08-31T05:20:34;98921.91;;;19.92;100.00
8069;BME280;4077;43.702;24.896;2023-08-31T05:23:02;98919.97;;;19.97;100.00
8069;BME280;4077;43.702;24.896;2023-08-31T05:25:28;98924.25;;;20.00;100.00
8069;BME280;4077;43.702;24.896;2023-08-31T05:27:53;98924.53;;;20.15;100.00
8069;BME280;4077;43.702;24.896;2023-08-31T05:30:19;98923.00;;;20.33;100.00
8069;BME280;4077;43.702;24.896;2023-08-31T05:32:44;98926.06;;;20.46;100.00
8069;BME280;4077;43.702;24.896;2023-08-31T05:35:09;98923.88;;;20.57;100.00
8069;BME280;4077;43.702;24.896;2023-08-31T05:37:35;98938.00;;;20.76;100.00
8069;BME280;4077;43.702;24.896;2023-08-31T05:40:03;98954.50;;;21.02;100.00
8069;BME280;4077;43.702;24.896;2023-08-31T05:42:31;98952.16;;;21.16;100.00
8069;BME280;4077;43.702;24.896;2023-08-31T05:44:57;98956.03;;;21.29;100.00
8069;BME280;4077;43.702;24.896;2023-08-31T05:47:22;98956.44;;;21.41;100.00
8069;BME280;4077;43.702;24.896;2023-08-31T05:49:48;98961.69;;;21.41;100.00
8069;BME280;4077;43.702;24.896;2023-08-31T05:52:13;98961.69;;;21.41;100.00
8069;BME280;4077;43.702;24.896;2023-08-31T05:54:38;98964.22;;;21.64;100.00
8069;BME280;4077;43.702;24.896;2023-08-31T05:57:04;98964.34;;;21.81;100.00
8069;BME280;4077;43.702;24.896;2023-08-31T05:59:30;98972.47;;;21.96;100.00
8069;BME280;4077;43.702;24.896;2023-08-31T06:01:56;98985.59;;;22.18;100.00
8069;BME280;4077;43.702;24.896;2023-08-31T06:04:21;98991.31;;;22.27;100.00
8069;BME280;4077;43.702;24.896;2023-08-31T06:06:47;98993.66;;;22.33;100.00
8069;BME280;4077;43.702;24.896;2023-08-31T06:09:12;98993.75;;;22.51;100.00
8069;BME280;4077;43.702;24.896;2023-08-31T06:11:38;98998.25;;;22.67;100.00
8069;BME280;4077;43.702;24.896;2023-08-31T06:14:04;99007.22;;;22.82;100.00
8069;BME280;4077;43.702;24.896;2023-08-31T06:16:30;99016.53;;;22.71;100.00
8069;BME280;4077;43.702;24.896;2023-08-31T06:18:55;99022.63;;;22.71;100.00
8069;BME280;4077;43.702;24.896;2023-08-31T06:21:20;99014.25;;;22.63;100.00
8069;BME280;4077;43.702;24.896;2023-08-31T06:23:46;99022.06;;;22.64;100.00
8069;BME280;4077;43.702;24.896;2023-08-31T06:26:11;99020.72;;;22.75;100.00
8069;BME280;4077;43.702;24.896;2023-08-31T06:28:36;99025.97;;;23.14;100.00
8069;BME280;4077;43.702;24.896;2023-08-31T06:31:02;99026.19;;;23.45;100.00
8069;BME280;4077;43.702;24.896;2023-08-31T06:33:27;99027.88;;;23.65;100.00
8069;BME280;4077;43.702;24.896;2023-08-31T06:35:53;99045.50;;;23.82;100.00
8069;BME280;4077;43.702;24.896;2023-08-31T06:38:19;99047.47;;;24.29;100.00
8069;BME280;4077;43.702;24.896;2023-08-31T06:40:46;99070.75;;;24.73;100.00
8069;BME280;4077;43.702;24.896;2023-08-31T06:43:11;99066.59;;;24.51;100.00
8069;BME280;4077;43.702;24.896;2023-08-31T06:45:37;99064.94;;;24.14;100.00
8069;BME280;4077;43.702;24.896;2023-08-31T06:48:03;99060.31;;;23.85;100.00
8069;BME280;4077;43.702;24.896;2023-08-31T06:50:30;99065.03;;;23.78;100.00
8069;BME280;4077;43.702;24.896;2023-08-31T06:52:55;99071.75;;;23.66;100.00
8069;BME280;4077;43.702;24.896;2023-08-31T06:55:21;99075.72;;;23.75;100.00
8069;BME280;4077;43.702;24.896;2023-08-31T06:57:46;99075.72;;;23.75;100.00
8069;BME280;4077;43.702;24.896;2023-08-31T07:00:12;99083.63;;;23.75;100.00
8069;BME280;4077;43.702;24.896;2023-08-31T07:02:40;99077.72;;;23.70;100.00
8069;BME280;4077;43.702;24.896;2023-08-31T07:05:07;99083.25;;;23.83;100.00
8069;BME280;4077;43.702;24.896;2023-08-31T07:07:32;99091.28;;;24.33;100.00
8069;BME280;4077;43.702;24.896;2023-08-31T07:09:58;99100.91;;;24.34;100.00
8069;BME280;4077;43.702;24.896;2023-08-31T07:12:33;99100.19;;;24.13;100.00
8069;BME280;4077;43.702;24.896;2023-08-31T07:14:59;99099.94;;;23.83;100.00
8069;BME280;4077;43.702;24.896;2023-08-31T07:17:24;99094.00;;;23.61;100.00
8069;BME280;4077;43.702;24.896;2023-08-31T07:19:50;99099.81;;;23.48;100.00
8069;BME280;4077;43.702;24.896;2023-08-31T07:22:15;99096.94;;;23.53;100.00
8069;BME280;4077;43.702;24.896;2023-08-31T07:24:40;99102.94;;;23.57;100.00
8069;BME280;4077;43.702;24.896;2023-08-31T07:27:06;99103.78;;;23.76;100.00
8069;BME280;4077;43.702;24.896;2023-08-31T07:29:31;99101.97;;;24.13;100.00
8069;BME280;4077;43.702;24.896;2023-08-31T07:31:57;99105.09;;;24.38;100.00
8069;BME280;4077;43.702;24.896;2023-08-31T07:34:23;99116.13;;;24.46;100.00
8069;BME280;4077;43.702;24.896;2023-08-31T07:36:49;99117.13;;;24.44;100.00
8069;BME280;4077;43.702;24.896;2023-08-31T07:39:14;99119.22;;;24.54;100.00
8069;BME280;4077;43.702;24.896;2023-08-31T07:41:43;99116.13;;;24.46;100.00
8069;BME280;4077;43.702;24.896;2023-08-31T07:44:08;99119.22;;;24.54;100.00
8069;BME280;4077;43.702;24.896;2023-08-31T07:46:33;99122.16;;;24.66;100.00
8069;BME280;4077;43.702;24.896;2023-08-31T07:48:59;99122.25;;;24.64;100.00
8069;BME280;4077;43.702;24.896;2023-08-31T07:51:24;99130.03;;;24.83;100.00
8069;BME280;4077;43.702;24.896;2023-08-31T07:53:56;99122.22;;;24.97;100.00
8069;BME280;4077;43.702;24.896;2023-08-31T07:56:22;99135.84;;;25.23;100.00
8069;BME280;4077;43.702;24.896;2023-08-31T07:58:49;99132.78;;;25.30;100.00
8069;BME280;4077;43.702;24.896;2023-08-31T08:01:15;99141.75;;;25.28;100.00
8069;BME280;4077;43.702;24.896;2023-08-31T08:03:40;99131.28;;;25.26;100.00
8069;BME280;4077;43.702;24.896;2023-08-31T08:06:06;99141.56;;;25.31;100.00
8069;BME280;4077;43.702;24.896;2023-08-31T08:08:31;99150.19;;;25.50;100.00
8069;BME280;4077;43.702;24.896;2023-08-31T08:10:57;99149.94;;;25.71;100.00
8069;BME280;4077;43.702;24.896;2023-08-31T08:13:22;99145.53;;;25.87;99.80
8069;BME280;4077;43.702;24.896;2023-08-31T08:15:48;99152.94;;;25.96;96.93
8069;BME280;4077;43.702;24.896;2023-08-31T08:18:14;99151.88;;;26.14;90.61
8069;BME280;4077;43.702;24.896;2023-08-31T08:20:39;99146.22;;;26.21;90.34
8069;BME280;4077;43.702;24.896;2023-08-31T08:23:05;99150.59;;;26.22;90.65
8069;BME280;4077;43.702;24.896;2023-08-31T08:25:31;99153.03;;;26.40;83.64
8069;BME280;4077;43.702;24.896;2023-08-31T08:27:56;99156.69;;;26.38;77.41
8069;BME280;4077;43.702;24.896;2023-08-31T08:30:22;99155.66;;;26.56;78.08
8069;BME280;4077;43.702;24.896;2023-08-31T08:32:47;99155.09;;;26.65;74.93
8069;BME280;4077;43.702;24.896;2023-08-31T08:35:13;99154.91;;;26.68;75.43
8069;BME280;4077;43.702;24.896;2023-08-31T08:37:39;99150.16;;;26.59;72.97
8069;BME280;4077;43.702;24.896;2023-08-31T08:40:04;99157.75;;;26.65;73.56
8069;BME280;4077;43.702;24.896;2023-08-31T08:42:30;99163.16;;;26.78;74.79
8069;BME280;4077;43.702;24.896;2023-08-31T08:45:00;99153.78;;;26.87;73.50
8069;BME280;4077;43.702;24.896;2023-08-31T08:47:26;99157.66;;;26.95;71.58
8069;BME280;4077;43.702;24.896;2023-08-31T08:49:53;99155.59;;;27.00;74.14
8069;BME280;4077;43.702;24.896;2023-08-31T08:52:19;99154.41;;;27.06;73.64
8069;BME280;4077;43.702;24.896;2023-08-31T08:54:45;99156.09;;;27.07;69.54
8069;BME280;4077;43.702;24.896;2023-08-31T08:57:11;99157.38;;;26.71;67.60
8069;BME280;4077;43.702;24.896;2023-08-31T08:59:36;99156.53;;;26.85;69.06
8069;BME280;4077;43.702;24.896;2023-08-31T09:02:02;99148.00;;;26.80;71.81
8069;BME280;4077;43.702;24.896;2023-08-31T09:04:30;99149.78;;;26.65;71.99
8069;BME280;4077;43.702;24.896;2023-08-31T09:06:56;99143.00;;;26.90;70.65
8069;BME280;4077;43.702;24.896;2023-08-31T09:09:21;99150.59;;;27.24;67.80
8069;BME280;4077;43.702;24.896;2023-08-31T09:11:48;99153.44;;;27.21;68.11
8069;BME280;4077;43.702;24.896;2023-08-31T09:14:15;99153.25;;;27.24;67.20
8069;BME280;4077;43.702;24.896;2023-08-31T09:16:44;99147.00;;;27.40;66.66
8069;BME280;4077;43.702;24.896;2023-08-31T09:19:27;99150.88;;;27.48;67.76
8069;BME280;4077;43.702;24.896;2023-08-31T09:21:55;99152.47;;;27.51;64.31
8069;BME280;4077;43.702;24.896;2023-08-31T09:24:21;99143.38;;;27.55;61.81
8069;BME280;4077;43.702;24.896;2023-08-31T09:26:53;99153.75;;;27.72;61.55
8069;BME280;4077;43.702;24.896;2023-08-31T09:29:19;99159.97;;;27.86;61.09
8069;BME280;4077;43.702;24.896;2023-08-31T09:31:44;99159.66;;;28.31;60.63
8069;BME280;4077;43.702;24.896;2023-08-31T09:34:10;99169.53;;;28.95;59.31
8069;BME280;4077;43.702;24.896;2023-08-31T09:36:37;99167.78;;;29.45;56.98
8069;BME280;4077;43.702;24.896;2023-08-31T09:39:04;99175.22;;;29.89;54.29
8069;BME280;4077;43.702;24.896;2023-08-31T09:41:30;99164.06;;;29.60;56.00
8069;BME280;4077;43.702;24.896;2023-08-31T09:43:56;99178.44;;;30.18;54.12
8069;BME280;4077;43.702;24.896;2023-08-31T09:46:22;99177.41;;;30.32;52.62
8069;BME280;4077;43.702;24.896;2023-08-31T09:48:48;99166.16;;;29.91;51.37
8069;BME280;4077;43.702;24.896;2023-08-31T09:51:15;99171.94;;;29.36;51.72
8069;BME280;4077;43.702;24.896;2023-08-31T09:53:48;99157.94;;;28.83;52.43
8069;BME280;4077;43.702;24.896;2023-08-31T09:56:18;99158.00;;;28.56;54.47
8069;BME280;4077;43.702;24.896;2023-08-31T09:58:46;99151.88;;;28.28;54.95
8069;BME280;4077;43.702;24.896;2023-08-31T10:01:12;99160.97;;;28.24;52.75
8069;BME280;4077;43.702;24.896;2023-08-31T10:03:39;99148.41;;;28.01;53.58
8069;BME280;4077;43.702;24.896;2023-08-31T10:06:05;99160.44;;;28.19;52.11
8069;BME280;4077;43.702;24.896;2023-08-31T10:08:30;99160.13;;;28.24;52.79
8069;BME280;4077;43.702;24.896;2023-08-31T10:10:59;99156.81;;;28.34;50.67
8069;BME280;4077;43.702;24.896;2023-08-31T10:13:34;99157.88;;;28.45;53.17
8069;BME280;4077;43.702;24.896;2023-08-31T10:16:04;99170.31;;;28.17;51.11
8069;BME280;4077;43.702;24.896;2023-08-31T10:18:30;99157.38;;;28.25;50.46
8069;BME280;4077;43.702;24.896;2023-08-31T10:20:57;99160.97;;;28.51;49.92
8069;BME280;4077;43.702;24.896;2023-08-31T10:23:22;99157.03;;;28.44;51.61
8069;BME280;4077;43.702;24.896;2023-08-31T10:28:21;99159.81;;;28.55;51.00
8069;BME280;4077;43.702;24.896;2023-08-31T10:33:26;99159.13;;;28.92;52.45
8069;BME280;4077;43.702;24.896;2023-08-31T10:35:55;99163.66;;;29.15;51.72
8069;BME280;4077;43.702;24.896;2023-08-31T10:38:31;99155.69;;;29.15;51.30
8069;BME280;4077;43.702;24.896;2023-08-31T10:46:45;99168.13;;;29.02;49.79
8069;BME280;4077;43.702;24.896;2023-08-31T10:51:41;99158.91;;;28.95;49.76
8069;BME280;4077;43.702;24.896;2023-08-31T10:54:08;99155.81;;;29.01;48.68
8069;BME280;4077;43.702;24.896;2023-08-31T10:59:16;99161.13;;;29.26;48.13
8069;BME280;4077;43.702;24.896;2023-08-31T11:01:55;99159.91;;;29.30;47.08
8069;BME280;4077;43.702;24.896;2023-08-31T11:04:27;99148.25;;;29.20;47.13
8069;BME280;4077;43.702;24.896;2023-08-31T11:07:12;99162.81;;;29.02;44.23
8069;BME280;4077;43.702;24.896;2023-08-31T11:09:38;99158.69;;;28.98;46.24
8069;BME280;4077;43.702;24.896;2023-08-31T11:12:04;99160.06;;;29.16;45.09
8069;BME280;4077;43.702;24.896;2023-08-31T11:14:30;99162.81;;;29.27;45.94
8069;BME280;4077;43.702;24.896;2023-08-31T11:16:55;99164.91;;;29.35;45.13
8069;BME280;4077;43.702;24.896;2023-08-31T11:19:21;99161.78;;;29.17;43.85
8069;BME280;4077;43.702;24.896;2023-08-31T11:21:47;99156.53;;;29.15;44.54
8069;BME280;4077;43.702;24.896;2023-08-31T11:24:12;99167.28;;;29.14;44.67
8069;BME280;4077;43.702;24.896;2023-08-31T11:26:38;99163.38;;;29.07;44.11
8069;BME280;4077;43.702;24.896;2023-08-31T11:29:07;99167.09;;;29.04;44.53
8069;BME280;4077;43.702;24.896;2023-08-31T11:31:37;99166.22;;;29.16;44.95
8069;BME280;4077;43.702;24.896;2023-08-31T11:34:05;99164.75;;;29.25;44.42
8069;BME280;4077;43.702;24.896;2023-08-31T11:36:32;99169.22;;;29.12;45.23
8069;BME280;4077;43.702;24.896;2023-08-31T11:38:58;99168.78;;;28.93;44.25
8069;BME280;4077;43.702;24.896;2023-08-31T11:41:23;99170.56;;;28.79;42.86
8069;BME280;4077;43.702;24.896;2023-08-31T11:43:49;99178.53;;;28.79;43.91
8069;BME280;4077;43.702;24.896;2023-08-31T11:46:16;99152.78;;;28.67;45.69
8069;BME280;4077;43.702;24.896;2023-08-31T11:48:43;99170.50;;;28.94;45.77
8069;BME280;4077;43.702;24.896;2023-08-31T11:51:10;99162.03;;;28.74;45.49
8069;BME280;4077;43.702;24.896;2023-08-31T11:53:37;99157.47;;;28.64;44.63
8069;BME280;4077;43.702;24.896;2023-08-31T11:56:03;99159.38;;;28.74;44.57
8069;BME280;4077;43.702;24.896;2023-08-31T11:58:28;99162.47;;;28.68;44.85
8069;BME280;4077;43.702;24.896;2023-08-31T12:00:55;99153.88;;;28.65;45.61
8069;BME280;4077;43.702;24.896;2023-08-31T12:03:21;99155.13;;;28.59;44.84
8069;BME280;4077;43.702;24.896;2023-08-31T12:05:48;99161.97;;;28.76;45.18
8069;BME280;4077;43.702;24.896;2023-08-31T12:08:24;99159.63;;;28.84;45.12
8069;BME280;4077;43.702;24.896;2023-08-31T12:10:50;99151.34;;;28.76;45.20
8069;BME280;4077;43.702;24.896;2023-08-31T12:13:27;99162.81;;;28.76;45.16
8069;BME280;4077;43.702;24.896;2023-08-31T12:15:57;99154.63;;;28.79;44.43
8069;BME280;4077;43.702;24.896;2023-08-31T12:18:23;99156.84;;;28.85;44.13
8069;BME280;4077;43.702;24.896;2023-08-31T12:20:52;99157.50;;;28.76;43.82
8069;BME280;4077;43.702;24.896;2023-08-31T12:23:18;99156.31;;;28.68;44.17
8069;BME280;4077;43.702;24.896;2023-08-31T12:25:53;99160.75;;;28.67;43.22
8069;BME280;4077;43.702;24.896;2023-08-31T12:28:20;99149.81;;;28.59;43.53
8069;BME280;4077;43.702;24.896;2023-08-31T12:30:51;99148.13;;;28.58;43.33
8069;BME280;4077;43.702;24.896;2023-08-31T12:33:18;99147.81;;;28.63;44.09
8069;BME280;4077;43.702;24.896;2023-08-31T12:35:43;99146.00;;;28.63;44.50
8069;BME280;4077;43.702;24.896;2023-08-31T12:38:09;99146.63;;;28.67;44.81
8069;BME280;4077;43.702;24.896;2023-08-31T12:40:35;99147.41;;;28.69;44.54
8069;BME280;4077;43.702;24.896;2023-08-31T12:43:01;99142.50;;;28.63;44.99
8069;BME280;4077;43.702;24.896;2023-08-31T12:45:27;99140.03;;;28.47;44.88
8069;BME280;4077;43.702;24.896;2023-08-31T12:47:53;99139.59;;;28.40;44.74
8069;BME280;4077;43.702;24.896;2023-08-31T12:50:18;99133.13;;;28.44;45.15
8069;BME280;4077;43.702;24.896;2023-08-31T12:52:48;99133.00;;;28.46;44.53
8069;BME280;4077;43.702;24.896;2023-08-31T12:55:14;99136.41;;;28.35;44.33
8069;BME280;4077;43.702;24.896;2023-08-31T12:57:41;99130.72;;;28.14;43.48
8069;BME280;4077;43.702;24.896;2023-08-31T13:00:07;99119.31;;;28.12;43.39
8069;BME280;4077;43.702;24.896;2023-08-31T13:02:40;99117.44;;;28.14;43.42
8069;BME280;4077;43.702;24.896;2023-08-31T13:05:07;99111.81;;;28.19;44.13
8069;BME280;4077;43.702;24.896;2023-08-31T13:07:34;99119.06;;;28.29;43.45
8069;BME280;4077;43.702;24.896;2023-08-31T13:10:00;99105.66;;;28.18;43.75
8069;BME280;4077;43.702;24.896;2023-08-31T13:12:29;99123.03;;;28.37;44.89
8069;BME280;4077;43.702;24.896;2023-08-31T13:14:54;99111.00;;;28.31;44.20
8069;BME280;4077;43.702;24.896;2023-08-31T13:17:20;99116.88;;;28.36;43.56
8069;BME280;4077;43.702;24.896;2023-08-31T13:19:45;99109.03;;;28.34;43.50
8069;BME280;4077;43.702;24.896;2023-08-31T13:22:11;99116.59;;;28.26;44.03
8069;BME280;4077;43.702;24.896;2023-08-31T13:24:40;99110.63;;;28.10;45.45
8069;BME280;4077;43.702;24.896;2023-08-31T13:27:06;99109.56;;;28.13;43.93
8069;BME280;4077;43.702;24.896;2023-08-31T13:29:31;99114.00;;;28.12;43.46
8069;BME280;4077;43.702;24.896;2023-08-31T13:31:57;99116.16;;;28.07;42.73